sensor_id;sensor_type;location;lat;lon;timestamp;temperature;humidity
16871;DHT22;8552;48.120;-1.456;2023-03-21T00:01:04;6.90;99.90
16871;DHT22;8552;48.120;-1.456;2023-03-21T00:03:32;6.90;99.90
16871;DHT22;8552;48.120;-1.456;2023-03-21T00:05:58;7.00;99.90
16871;DHT22;8552;48.120;-1.456;2023-03-21T00:08:25;7.00;99.90
16871;DHT22;8552;48.120;-1.456;2023-03-21T00:10:58;7.10;99.90
16871;DHT22;8552;48.120;-1.456;2023-03-21T00:13:24;7.20;99.90
16871;DHT22;8552;48.120;-1.456;2023-03-21T00:15:51;7.20;99.90
16871;DHT22;8552;48.120;-1.456;2023-03-21T00:18:22;7.30;99.90
16871;DHT22;8552;48.120;-1.456;2023-03-21T00:21:00;7.40;99.90
16871;DHT22;8552;48.120;-1.456;2023-03-21T00:23:27;7.40;99.90
16871;DHT22;8552;48.120;-1.456;2023-03-21T00:25:53;7.40;99.90
16871;DHT22;8552;48.120;-1.456;2023-03-21T00:28:19;7.50;99.90
16871;DHT22;8552;48.120;-1.456;2023-03-21T00:30:45;7.60;99.90
16871;DHT22;8552;48.120;-1.456;2023-03-21T00:33:11;7.60;99.90
16871;DHT22;8552;48.120;-1.456;2023-03-21T00:35:41;7.60;99.90
16871;DHT22;8552;48.120;-1.456;2023-03-21T00:38:09;7.60;99.90
16871;DHT22;8552;48.120;-1.456;2023-03-21T00:40:35;7.70;99.90
16871;DHT22;8552;48.120;-1.456;2023-03-21T00:43:01;7.70;99.90
16871;DHT22;8552;48.120;-1.456;2023-03-21T00:45:26;7.70;99.90
16871;DHT22;8552;48.120;-1.456;2023-03-21T00:47:52;7.70;99.90
16871;DHT22;8552;48.120;-1.456;2023-03-21T00:50:18;7.70;99.90
16871;DHT22;8552;48.120;-1.456;2023-03-21T00:52:43;7.70;99.90
16871;DHT22;8552;48.120;-1.456;2023-03-21T00:55:18;7.70;99.90
16871;DHT22;8552;48.120;-1.456;2023-03-21T00:57:44;7.70;99.90
16871;DHT22;8552;48.120;-1.456;2023-03-21T01:00:12;7.70;99.90
16871;DHT22;8552;48.120;-1.456;2023-03-21T01:02:39;7.70;99.90
16871;DHT22;8552;48.120;-1.456;2023-03-21T01:05:27;7.70;99.90
16871;DHT22;8552;48.120;-1.456;2023-03-21T01:08:14;7.70;99.90
16871;DHT22;8552;48.120;-1.456;2023-03-21T01:10:42;7.70;99.90
16871;DHT22;8552;48.120;-1.456;2023-03-21T01:13:10;7.70;99.90
16871;DHT22;8552;48.120;-1.456;2023-03-21T01:15:41;7.80;99.90
16871;DHT22;8552;48.120;-1.456;2023-03-21T01:18:07;7.80;99.90
16871;DHT22;8552;48.120;-1.456;2023-03-21T01:20:32;7.80;99.90
16871;DHT22;8552;48.120;-1.456;2023-03-21T01:22:58;7.80;99.90
16871;DHT22;8552;48.120;-1.456;2023-03-21T01:25:24;7.90;99.90
16871;DHT22;8552;48.120;-1.456;2023-03-21T01:27:49;7.90;99.90
16871;DHT22;8552;48.120;-1.456;2023-03-21T01:30:16;7.90;99.90
16871;DHT22;8552;48.120;-1.456;2023-03-21T01:32:41;7.90;99.90
16871;DHT22;8552;48.120;-1.456;2023-03-21T01:35:07;7.90;99.90
16871;DHT22;8552;48.120;-1.456;2023-03-21T01:37:33;8.00;99.90
16871;DHT22;8552;48.120;-1.456;2023-03-21T01:39:59;8.00;99.90
16871;DHT22;8552;48.120;-1.456;2023-03-21T01:42:25;8.00;99.90
16871;DHT22;8552;48.120;-1.456;2023-03-21T01:47:24;8.00;99.90
16871;DHT22;8552;48.120;-1.456;2023-03-21T01:49:53;8.10;99.90
16871;DHT22;8552;48.120;-1.456;2023-03-21T01:52:23;8.10;99.90
16871;DHT22;8552;48.120;-1.456;2023-03-21T01:54:52;8.10;99.90
16871;DHT22;8552;48.120;-1.456;2023-03-21T01:57:41;8.10;99.90
16871;DHT22;8552;48.120;-1.456;2023-03-21T02:00:11;8.10;99.90
16871;DHT22;8552;48.120;-1.456;2023-03-21T02:02:42;8.10;99.90
16871;DHT22;8552;48.120;-1.456;2023-03-21T02:05:17;8.10;99.90
16871;DHT22;8552;48.120;-1.456;2023-03-21T02:07:44;8.00;99.90
16871;DHT22;8552;48.120;-1.456;2023-03-21T02:10:13;8.10;99.90
16871;DHT22;8552;48.120;-1.456;2023-03-21T02:12:39;8.00;99.90
16871;DHT22;8552;48.120;-1.456;2023-03-21T02:15:06;8.00;99.90
16871;DHT22;8552;48.120;-1.456;2023-03-21T02:26:02;8.00;99.90
16871;DHT22;8552;48.120;-1.456;2023-03-21T02:28:58;8.00;99.90
16871;DHT22;8552;48.120;-1.456;2023-03-21T02:34:24;8.00;99.90
16871;DHT22;8552;48.120;-1.456;2023-03-21T02:36:56;8.00;99.90
16871;DHT22;8552;48.120;-1.456;2023-03-21T02:39:27;8.00;99.90
16871;DHT22;8552;48.120;-1.456;2023-03-21T02:42:18;8.00;99.90
16871;DHT22;8552;48.120;-1.456;2023-03-21T02:50:09;8.00;99.90
16871;DHT22;8552;48.120;-1.456;2023-03-21T02:52:37;8.10;99.90
16871;DHT22;8552;48.120;-1.456;2023-03-21T02:55:05;8.10;99.90
16871;DHT22;8552;48.120;-1.456;2023-03-21T02:57:32;8.10;99.90
16871;DHT22;8552;48.120;-1.456;2023-03-21T02:59:59;8.10;99.90
16871;DHT22;8552;48.120;-1.456;2023-03-21T03:02:27;8.10;99.90
16871;DHT22;8552;48.120;-1.456;2023-03-21T03:04:53;8.20;99.90
16871;DHT22;8552;48.120;-1.456;2023-03-21T03:07:56;8.20;99.90
16871;DHT22;8552;48.120;-1.456;2023-03-21T03:13:53;8.20;99.90
16871;DHT22;8552;48.120;-1.456;2023-03-21T03:16:24;8.20;99.90
16871;DHT22;8552;48.120;-1.456;2023-03-21T03:18:59;8.30;99.90
16871;DHT22;8552;48.120;-1.456;2023-03-21T03:24:30;8.30;99.90
16871;DHT22;8552;48.120;-1.456;2023-03-21T03:27:12;8.30;99.90
16871;DHT22;8552;48.120;-1.456;2023-03-21T03:29:41;8.40;99.90
16871;DHT22;8552;48.120;-1.456;2023-03-21T03:34:40;8.40;99.90
16871;DHT22;8552;48.120;-1.456;2023-03-21T03:37:10;8.40;99.90
16871;DHT22;8552;48.120;-1.456;2023-03-21T03:39:45;8.40;99.90
16871;DHT22;8552;48.120;-1.456;2023-03-21T03:42:27;8.40;99.90
16871;DHT22;8552;48.120;-1.456;2023-03-21T03:44:53;8.40;99.90
16871;DHT22;8552;48.120;-1.456;2023-03-21T03:47:26;8.40;99.90
16871;DHT22;8552;48.120;-1.456;2023-03-21T03:50:34;8.40;99.90
16871;DHT22;8552;48.120;-1.456;2023-03-21T03:55:41;8.50;99.90
16871;DHT22;8552;48.120;-1.456;2023-03-21T03:58:07;8.50;99.90
16871;DHT22;8552;48.120;-1.456;2023-03-21T04:00:33;8.50;99.90
16871;DHT22;8552;48.120;-1.456;2023-03-21T04:02:59;8.50;99.90
16871;DHT22;8552;48.120;-1.456;2023-03-21T04:05:25;8.50;99.90
16871;DHT22;8552;48.120;-1.456;2023-03-21T04:07:51;8.50;99.90
16871;DHT22;8552;48.120;-1.456;2023-03-21T04:10:18;8.60;99.90
16871;DHT22;8552;48.120;-1.456;2023-03-21T04:12:44;8.60;99.90
16871;DHT22;8552;48.120;-1.456;2023-03-21T04:15:10;8.60;99.90
16871;DHT22;8552;48.120;-1.456;2023-03-21T04:17:37;8.70;99.90
16871;DHT22;8552;48.120;-1.456;2023-03-21T04:20:05;8.70;99.90
16871;DHT22;8552;48.120;-1.456;2023-03-21T04:22:32;8.80;99.90
16871;DHT22;8552;48.120;-1.456;2023-03-21T04:24:58;8.70;99.90
16871;DHT22;8552;48.120;-1.456;2023-03-21T04:27:26;8.80;99.90
16871;DHT22;8552;48.120;-1.456;2023-03-21T04:29:52;8.80;99.90
16871;DHT22;8552;48.120;-1.456;2023-03-21T04:32:17;8.80;99.90
16871;DHT22;8552;48.120;-1.456;2023-03-21T04:34:44;8.90;99.90
16871;DHT22;8552;48.120;-1.456;2023-03-21T04:37:18;8.80;99.90
16871;DHT22;8552;48.120;-1.456;2023-03-21T04:39:44;8.90;99.90
16871;DHT22;8552;48.120;-1.456;2023-03-21T04:42:14;8.90;99.90
16871;DHT22;8552;48.120;-1.456;2023-03-21T04:44:40;9.00;99.90
16871;DHT22;8552;48.120;-1.456;2023-03-21T04:47:06;9.00;99.90
16871;DHT22;8552;48.120;-1.456;2023-03-21T04:49:33;9.00;99.90
16871;DHT22;8552;48.120;-1.456;2023-03-21T04:51:58;9.10;99.90
16871;DHT22;8552;48.120;-1.456;2023-03-21T04:54:24;9.10;99.90
16871;DHT22;8552;48.120;-1.456;2023-03-21T04:56:50;9.10;99.90
16871;DHT22;8552;48.120;-1.456;2023-03-21T04:59:17;9.20;99.90
16871;DHT22;8552;48.120;-1.456;2023-03-21T05:01:43;9.20;99.90
16871;DHT22;8552;48.120;-1.456;2023-03-21T05:04:11;9.20;99.90
16871;DHT22;8552;48.120;-1.456;2023-03-21T05:06:37;9.30;99.90
16871;DHT22;8552;48.120;-1.456;2023-03-21T05:09:04;9.30;99.90
16871;DHT22;8552;48.120;-1.456;2023-03-21T05:11:32;9.30;99.90
16871;DHT22;8552;48.120;-1.456;2023-03-21T05:14:00;9.30;99.90
16871;DHT22;8552;48.120;-1.456;2023-03-21T05:16:26;9.30;99.90
16871;DHT22;8552;48.120;-1.456;2023-03-21T05:18:55;9.40;99.90
16871;DHT22;8552;48.120;-1.456;2023-03-21T05:21:22;9.40;99.90
16871;DHT22;8552;48.120;-1.456;2023-03-21T05:23:48;9.40;99.90
16871;DHT22;8552;48.120;-1.456;2023-03-21T05:26:21;9.40;99.90
16871;DHT22;8552;48.120;-1.456;2023-03-21T05:28:48;9.40;99.90
16871;DHT22;8552;48.120;-1.456;2023-03-21T05:31:15;9.40;99.90
16871;DHT22;8552;48.120;-1.456;2023-03-21T05:33:44;9.40;99.90
16871;DHT22;8552;48.120;-1.456;2023-03-21T05:36:10;9.50;99.90
16871;DHT22;8552;48.120;-1.456;2023-03-21T05:38:36;9.50;99.90
16871;DHT22;8552;48.120;-1.456;2023-03-21T05:41:01;9.50;99.90
16871;DHT22;8552;48.120;-1.456;2023-03-21T05:43:27;9.50;99.90
16871;DHT22;8552;48.120;-1.456;2023-03-21T05:45:53;9.50;99.90
16871;DHT22;8552;48.120;-1.456;2023-03-21T05:48:19;9.40;99.90
16871;DHT22;8552;48.120;-1.456;2023-03-21T05:50:45;9.40;99.90
16871;DHT22;8552;48.120;-1.456;2023-03-21T05:53:11;9.40;99.90
16871;DHT22;8552;48.120;-1.456;2023-03-21T05:55:37;9.30;99.90
16871;DHT22;8552;48.120;-1.456;2023-03-21T05:58:03;9.30;99.90
16871;DHT22;8552;48.120;-1.456;2023-03-21T06:00:29;9.20;99.90
16871;DHT22;8552;48.120;-1.456;2023-03-21T06:02:55;9.20;99.90
16871;DHT22;8552;48.120;-1.456;2023-03-21T06:05:21;9.20;99.90
16871;DHT22;8552;48.120;-1.456;2023-03-21T06:07:46;9.20;99.90
16871;DHT22;8552;48.120;-1.456;2023-03-21T06:10:12;9.20;99.90
16871;DHT22;8552;48.120;-1.456;2023-03-21T06:12:38;9.20;99.90
16871;DHT22;8552;48.120;-1.456;2023-03-21T06:15:05;9.30;99.90
16871;DHT22;8552;48.120;-1.456;2023-03-21T06:17:33;9.30;99.90
16871;DHT22;8552;48.120;-1.456;2023-03-21T06:19:58;9.40;99.90
16871;DHT22;8552;48.120;-1.456;2023-03-21T06:22:29;9.40;99.90
16871;DHT22;8552;48.120;-1.456;2023-03-21T06:24:55;9.40;99.90
16871;DHT22;8552;48.120;-1.456;2023-03-21T06:27:21;9.40;99.90
16871;DHT22;8552;48.120;-1.456;2023-03-21T06:29:47;9.50;99.90
16871;DHT22;8552;48.120;-1.456;2023-03-21T06:32:13;9.50;99.90
16871;DHT22;8552;48.120;-1.456;2023-03-21T06:34:39;9.50;99.90
16871;DHT22;8552;48.120;-1.456;2023-03-21T06:37:04;9.60;99.90
16871;DHT22;8552;48.120;-1.456;2023-03-21T06:39:30;9.60;99.90
16871;DHT22;8552;48.120;-1.456;2023-03-21T06:41:57;9.60;99.90
16871;DHT22;8552;48.120;-1.456;2023-03-21T06:44:23;9.70;99.90
16871;DHT22;8552;48.120;-1.456;2023-03-21T06:46:50;9.70;99.90
16871;DHT22;8552;48.120;-1.456;2023-03-21T06:49:16;9.80;99.90
16871;DHT22;8552;48.120;-1.456;2023-03-21T06:51:42;9.80;99.90
16871;DHT22;8552;48.120;-1.456;2023-03-21T06:54:08;9.90;99.90
16871;DHT22;8552;48.120;-1.456;2023-03-21T06:56:33;9.90;99.90
16871;DHT22;8552;48.120;-1.456;2023-03-21T06:58:59;10.00;99.90
16871;DHT22;8552;48.120;-1.456;2023-03-21T07:01:26;10.00;99.90
16871;DHT22;8552;48.120;-1.456;2023-03-21T07:03:53;10.10;99.90
16871;DHT22;8552;48.120;-1.456;2023-03-21T07:06:20;10.10;99.90
16871;DHT22;8552;48.120;-1.456;2023-03-21T07:08:46;10.20;99.90
16871;DHT22;8552;48.120;-1.456;2023-03-21T07:11:12;10.30;99.90
16871;DHT22;8552;48.120;-1.456;2023-03-21T07:13:38;10.30;99.90
16871;DHT22;8552;48.120;-1.456;2023-03-21T07:16:04;10.30;99.90
16871;DHT22;8552;48.120;-1.456;2023-03-21T07:18:31;10.40;99.90
16871;DHT22;8552;48.120;-1.456;2023-03-21T07:20:56;10.50;99.90
16871;DHT22;8552;48.120;-1.456;2023-03-21T07:23:25;10.50;99.90
16871;DHT22;8552;48.120;-1.456;2023-03-21T07:25:52;10.60;99.90
16871;DHT22;8552;48.120;-1.456;2023-03-21T07:28:19;10.60;99.90
16871;DHT22;8552;48.120;-1.456;2023-03-21T07:30:50;10.70;99.90
16871;DHT22;8552;48.120;-1.456;2023-03-21T07:33:16;10.80;99.90
16871;DHT22;8552;48.120;-1.456;2023-03-21T07:35:41;10.80;99.90
16871;DHT22;8552;48.120;-1.456;2023-03-21T07:38:07;10.90;99.90
16871;DHT22;8552;48.120;-1.456;2023-03-21T07:40:33;10.90;99.90
16871;DHT22;8552;48.120;-1.456;2023-03-21T07:42:58;11.00;99.90
16871;DHT22;8552;48.120;-1.456;2023-03-21T07:45:24;11.00;99.90
16871;DHT22;8552;48.120;-1.456;2023-03-21T07:47:52;11.10;99.90
16871;DHT22;8552;48.120;-1.456;2023-03-21T07:50:19;11.10;99.90
16871;DHT22;8552;48.120;-1.456;2023-03-21T07:52:45;11.20;99.90
16871;DHT22;8552;48.120;-1.456;2023-03-21T07:55:12;11.30;99.90
16871;DHT22;8552;48.120;-1.456;2023-03-21T07:57:38;11.40;99.90
16871;DHT22;8552;48.120;-1.456;2023-03-21T08:00:04;11.60;99.90
16871;DHT22;8552;48.120;-1.456;2023-03-21T08:02:31;11.80;99.90
16871;DHT22;8552;48.120;-1.456;2023-03-21T08:04:57;11.80;99.90
16871;DHT22;8552;48.120;-1.456;2023-03-21T08:07:53;11.90;99.90
16871;DHT22;8552;48.120;-1.456;2023-03-21T08:10:19;11.90;99.90
16871;DHT22;8552;48.120;-1.456;2023-03-21T08:12:45;12.00;99.90
16871;DHT22;8552;48.120;-1.456;2023-03-21T08:15:12;12.00;99.90
16871;DHT22;8552;48.120;-1.456;2023-03-21T08:17:39;12.00;99.90
16871;DHT22;8552;48.120;-1.456;2023-03-21T08:20:07;12.00;99.90
16871;DHT22;8552;48.120;-1.456;2023-03-21T08:22:34;12.10;99.90
16871;DHT22;8552;48.120;-1.456;2023-03-21T08:25:01;12.10;99.90
16871;DHT22;8552;48.120;-1.456;2023-03-21T08:27:28;12.20;99.90
16871;DHT22;8552;48.120;-1.456;2023-03-21T08:29:58;12.30;99.90
16871;DHT22;8552;48.120;-1.456;2023-03-21T08:32:24;12.20;99.90
16871;DHT22;8552;48.120;-1.456;2023-03-21T08:35:04;12.20;99.90
16871;DHT22;8552;48.120;-1.456;2023-03-21T08:37:31;12.30;99.90
16871;DHT22;8552;48.120;-1.456;2023-03-21T08:39:57;12.30;99.90
16871;DHT22;8552;48.120;-1.456;2023-03-21T08:42:23;12.40;99.90
16871;DHT22;8552;48.120;-1.456;2023-03-21T08:44:49;12.50;99.90
16871;DHT22;8552;48.120;-1.456;2023-03-21T08:47:15;12.50;99.90
16871;DHT22;8552;48.120;-1.456;2023-03-21T08:49:41;12.50;99.90
16871;DHT22;8552;48.120;-1.456;2023-03-21T08:52:10;12.50;99.90
16871;DHT22;8552;48.120;-1.456;2023-03-21T08:54:35;12.50;99.90
16871;DHT22;8552;48.120;-1.456;2023-03-21T08:57:01;12.50;99.90
16871;DHT22;8552;48.120;-1.456;2023-03-21T08:59:27;12.40;99.90
16871;DHT22;8552;48.120;-1.456;2023-03-21T09:01:53;12.50;99.90
16871;DHT22;8552;48.120;-1.456;2023-03-21T09:04:22;12.50;99.90
16871;DHT22;8552;48.120;-1.456;2023-03-21T09:06:50;12.60;99.90
16871;DHT22;8552;48.120;-1.456;2023-03-21T09:09:16;12.80;99.90
16871;DHT22;8552;48.120;-1.456;2023-03-21T09:11:42;12.90;99.90
16871;DHT22;8552;48.120;-1.456;2023-03-21T09:14:08;13.00;99.90
16871;DHT22;8552;48.120;-1.456;2023-03-21T09:16:34;13.00;99.90
16871;DHT22;8552;48.120;-1.456;2023-03-21T09:19:00;13.10;99.90
16871;DHT22;8552;48.120;-1.456;2023-03-21T09:21:29;13.10;99.90
16871;DHT22;8552;48.120;-1.456;2023-03-21T09:23:56;13.20;99.90
16871;DHT22;8552;48.120;-1.456;2023-03-21T09:26:25;13.40;99.90
16871;DHT22;8552;48.120;-1.456;2023-03-21T09:28:52;13.50;99.90
16871;DHT22;8552;48.120;-1.456;2023-03-21T09:31:19;13.70;99.90
16871;DHT22;8552;48.120;-1.456;2023-03-21T09:33:54;14.00;99.90
16871;DHT22;8552;48.120;-1.456;2023-03-21T09:36:24;14.20;99.90
16871;DHT22;8552;48.120;-1.456;2023-03-21T09:38:52;14.10;99.90
16871;DHT22;8552;48.120;-1.456;2023-03-21T09:47:21;13.60;99.90
16871;DHT22;8552;48.120;-1.456;2023-03-21T09:50:08;13.50;99.90
16871;DHT22;8552;48.120;-1.456;2023-03-21T09:52:56;13.50;99.90
16871;DHT22;8552;48.120;-1.456;2023-03-21T09:55:33;13.50;99.90
16871;DHT22;8552;48.120;-1.456;2023-03-21T09:58:29;13.80;99.90
16871;DHT22;8552;48.120;-1.456;2023-03-21T10:01:11;14.20;99.90
16871;DHT22;8552;48.120;-1.456;2023-03-21T10:03:47;14.30;99.90
16871;DHT22;8552;48.120;-1.456;2023-03-21T10:06:17;14.20;99.90
16871;DHT22;8552;48.120;-1.456;2023-03-21T10:08:47;14.10;99.90
16871;DHT22;8552;48.120;-1.456;2023-03-21T10:11:24;14.00;99.90
16871;DHT22;8552;48.120;-1.456;2023-03-21T10:14:06;13.80;99.90
16871;DHT22;8552;48.120;-1.456;2023-03-21T10:16:41;13.80;99.90
16871;DHT22;8552;48.120;-1.456;2023-03-21T10:19:15;13.60;99.90
16871;DHT22;8552;48.120;-1.456;2023-03-21T10:21:44;13.70;99.90
16871;DHT22;8552;48.120;-1.456;2023-03-21T10:24:19;13.60;99.90
16871;DHT22;8552;48.120;-1.456;2023-03-21T10:26:47;13.60;99.90
16871;DHT22;8552;48.120;-1.456;2023-03-21T10:29:15;13.80;99.90
16871;DHT22;8552;48.120;-1.456;2023-03-21T10:31:44;13.90;99.90
16871;DHT22;8552;48.120;-1.456;2023-03-21T10:36:52;14.30;99.90
16871;DHT22;8552;48.120;-1.456;2023-03-21T10:39:34;14.40;99.90
16871;DHT22;8552;48.120;-1.456;2023-03-21T10:42:01;14.40;99.90
16871;DHT22;8552;48.120;-1.456;2023-03-21T10:44:33;14.60;99.90
16871;DHT22;8552;48.120;-1.456;2023-03-21T10:47:07;14.90;99.90
16871;DHT22;8552;48.120;-1.456;2023-03-21T10:49:35;15.00;99.90
16871;DHT22;8552;48.120;-1.456;2023-03-21T10:52:06;15.10;99.90
16871;DHT22;8552;48.120;-1.456;2023-03-21T10:54:33;15.30;99.90
16871;DHT22;8552;48.120;-1.456;2023-03-21T10:57:19;15.50;99.90
16871;DHT22;8552;48.120;-1.456;2023-03-21T10:59:55;15.70;99.90
16871;DHT22;8552;48.120;-1.456;2023-03-21T11:05:06;16.20;99.90
16871;DHT22;8552;48.120;-1.456;2023-03-21T11:07:34;16.50;99.90
16871;DHT22;8552;48.120;-1.456;2023-03-21T11:10:12;16.70;99.90
16871;DHT22;8552;48.120;-1.456;2023-03-21T11:12:39;16.90;99.90
16871;DHT22;8552;48.120;-1.456;2023-03-21T11:17:52;17.20;99.90
16871;DHT22;8552;48.120;-1.456;2023-03-21T11:20:19;17.20;99.90
16871;DHT22;8552;48.120;-1.456;2023-03-21T11:22:45;17.10;99.90
16871;DHT22;8552;48.120;-1.456;2023-03-21T11:25:35;17.20;99.90
16871;DHT22;8552;48.120;-1.456;2023-03-21T11:28:11;16.90;99.90
16871;DHT22;8552;48.120;-1.456;2023-03-21T11:30:52;17.10;99.90
16871;DHT22;8552;48.120;-1.456;2023-03-21T11:33:20;17.10;99.90
16871;DHT22;8552;48.120;-1.456;2023-03-21T11:35:58;16.90;99.90
16871;DHT22;8552;48.120;-1.456;2023-03-21T11:38:36;16.70;99.90
16871;DHT22;8552;48.120;-1.456;2023-03-21T11:41:04;16.50;99.90
16871;DHT22;8552;48.120;-1.456;2023-03-21T11:43:33;16.50;99.90
16871;DHT22;8552;48.120;-1.456;2023-03-21T11:48:28;16.40;99.90
16871;DHT22;8552;48.120;-1.456;2023-03-21T11:50:59;16.20;99.90
16871;DHT22;8552;48.120;-1.456;2023-03-21T11:53:36;16.00;99.90
16871;DHT22;8552;48.120;-1.456;2023-03-21T12:04:30;15.60;99.90
16871;DHT22;8552;48.120;-1.456;2023-03-21T12:09:53;15.60;99.90
16871;DHT22;8552;48.120;-1.456;2023-03-21T12:17:49;15.70;99.90
16871;DHT22;8552;48.120;-1.456;2023-03-21T12:28:39;16.00;99.90
16871;DHT22;8552;48.120;-1.456;2023-03-21T12:39:01;17.00;99.90
16871;DHT22;8552;48.120;-1.456;2023-03-21T12:41:35;17.30;99.90
16871;DHT22;8552;48.120;-1.456;2023-03-21T12:44:12;17.70;99.90
16871;DHT22;8552;48.120;-1.456;2023-03-21T12:49:21;17.80;99.90
16871;DHT22;8552;48.120;-1.456;2023-03-21T12:51:53;18.10;99.90
16871;DHT22;8552;48.120;-1.456;2023-03-21T12:57:09;18.00;99.90
16871;DHT22;8552;48.120;-1.456;2023-03-21T12:59:48;18.30;99.90
16871;DHT22;8552;48.120;-1.456;2023-03-21T13:07:34;18.80;99.90
16871;DHT22;8552;48.120;-1.456;2023-03-21T13:10:12;18.90;99.90
16871;DHT22;8552;48.120;-1.456;2023-03-21T13:18:48;19.20;99.90
16871;DHT22;8552;48.120;-1.456;2023-03-21T13:26:47;19.40;99.90
16871;DHT22;8552;48.120;-1.456;2023-03-21T13:29:23;19.20;99.90
16871;DHT22;8552;48.120;-1.456;2023-03-21T13:31:52;19.00;99.20
16871;DHT22;8552;48.120;-1.456;2023-03-21T13:34:21;18.70;98.70
16871;DHT22;8552;48.120;-1.456;2023-03-21T13:36:48;18.60;99.20
16871;DHT22;8552;48.120;-1.456;2023-03-21T13:39:23;18.80;98.50
16871;DHT22;8552;48.120;-1.456;2023-03-21T13:41:50;18.80;99.10
16871;DHT22;8552;48.120;-1.456;2023-03-21T13:44:31;18.80;97.10
16871;DHT22;8552;48.120;-1.456;2023-03-21T13:47:03;18.90;97.80
16871;DHT22;8552;48.120;-1.456;2023-03-21T13:49:34;18.60;96.70
16871;DHT22;8552;48.120;-1.456;2023-03-21T13:52:26;18.20;97.00
16871;DHT22;8552;48.120;-1.456;2023-03-21T13:54:55;18.00;98.90
16871;DHT22;8552;48.120;-1.456;2023-03-21T14:00:16;18.40;98.90
16871;DHT22;8552;48.120;-1.456;2023-03-21T14:03:07;18.60;99.90
16871;DHT22;8552;48.120;-1.456;2023-03-21T14:05:33;18.60;98.60
16871;DHT22;8552;48.120;-1.456;2023-03-21T14:08:06;18.40;98.80
16871;DHT22;8552;48.120;-1.456;2023-03-21T14:10:41;18.60;98.60
16871;DHT22;8552;48.120;-1.456;2023-03-21T14:13:08;18.30;98.80
16871;DHT22;8552;48.120;-1.456;2023-03-21T14:15:52;18.40;98.90
16871;DHT22;8552;48.120;-1.456;2023-03-21T14:18:22;18.50;97.70
16871;DHT22;8552;48.120;-1.456;2023-03-21T14:20:53;18.50;97.70
16871;DHT22;8552;48.120;-1.456;2023-03-21T14:23:20;18.60;96.70
16871;DHT22;8552;48.120;-1.456;2023-03-21T14:25:46;18.40;97.30
16871;DHT22;8552;48.120;-1.456;2023-03-21T14:28:19;18.30;96.30
16871;DHT22;8552;48.120;-1.456;2023-03-21T14:30:50;18.50;97.90
16871;DHT22;8552;48.120;-1.456;2023-03-21T14:35:54;18.20;98.20
16871;DHT22;8552;48.120;-1.456;2023-03-21T14:38:26;18.20;99.90
16871;DHT22;8552;48.120;-1.456;2023-03-21T14:40:54;18.40;99.90
16871;DHT22;8552;48.120;-1.456;2023-03-21T14:43:21;18.60;99.90
16871;DHT22;8552;48.120;-1.456;2023-03-21T14:45:49;18.90;99.90
16871;DHT22;8552;48.120;-1.456;2023-03-21T14:48:17;18.90;99.90
16871;DHT22;8552;48.120;-1.456;2023-03-21T14:50:53;19.10;99.90
16871;DHT22;8552;48.120;-1.456;2023-03-21T14:55:59;19.10;99.90
16871;DHT22;8552;48.120;-1.456;2023-03-21T14:58:25;18.40;98.80
16871;DHT22;8552;48.120;-1.456;2023-03-21T15:00:55;18.40;99.90
16871;DHT22;8552;48.120;-1.456;2023-03-21T15:03:22;18.50;99.90
16871;DHT22;8552;48.120;-1.456;2023-03-21T15:05:50;18.30;99.50
16871;DHT22;8552;48.120;-1.456;2023-03-21T15:08:19;18.10;99.90
16871;DHT22;8552;48.120;-1.456;2023-03-21T15:10:59;18.10;99.90
16871;DHT22;8552;48.120;-1.456;2023-03-21T15:13:50;18.20;99.90
16871;DHT22;8552;48.120;-1.456;2023-03-21T15:16:17;18.40;99.90
16871;DHT22;8552;48.120;-1.456;2023-03-21T15:18:44;18.40;99.90
16871;DHT22;8552;48.120;-1.456;2023-03-21T15:21:17;18.40;99.50
16871;DHT22;8552;48.120;-1.456;2023-03-21T15:23:47;17.80;99.20
16871;DHT22;8552;48.120;-1.456;2023-03-21T15:26:20;17.40;99.20
16871;DHT22;8552;48.120;-1.456;2023-03-21T15:28:50;17.30;99.90
16871;DHT22;8552;48.120;-1.456;2023-03-21T15:31:22;17.30;99.90
16871;DHT22;8552;48.120;-1.456;2023-03-21T15:33:49;17.70;99.90
16871;DHT22;8552;48.120;-1.456;2023-03-21T15:36:27;17.80;99.90
16871;DHT22;8552;48.120;-1.456;2023-03-21T15:38:56;17.70;99.90
16871;DHT22;8552;48.120;-1.456;2023-03-21T15:41:28;18.00;99.90
16871;DHT22;8552;48.120;-1.456;2023-03-21T15:44:09;18.10;99.90
16871;DHT22;8552;48.120;-1.456;2023-03-21T15:46:43;18.30;99.90
16871;DHT22;8552;48.120;-1.456;2023-03-21T15:51:38;18.00;99.70
16871;DHT22;8552;48.120;-1.456;2023-03-21T15:54:13;17.70;99.90
16871;DHT22;8552;48.120;-1.456;2023-03-21T15:56:40;17.40;99.90
16871;DHT22;8552;48.120;-1.456;2023-03-21T15:59:14;17.10;99.90
16871;DHT22;8552;48.120;-1.456;2023-03-21T16:01:48;17.00;99.90
16871;DHT22;8552;48.120;-1.456;2023-03-21T16:04:14;17.20;99.90
16871;DHT22;8552;48.120;-1.456;2023-03-21T16:07:02;17.40;99.90
16871;DHT22;8552;48.120;-1.456;2023-03-21T16:09:43;17.60;99.90
16871;DHT22;8552;48.120;-1.456;2023-03-21T16:12:12;17.60;99.90
16871;DHT22;8552;48.120;-1.456;2023-03-21T16:14:38;17.30;99.90
16871;DHT22;8552;48.120;-1.456;2023-03-21T16:19:54;17.20;99.90
16871;DHT22;8552;48.120;-1.456;2023-03-21T16:22:20;17.20;99.90
16871;DHT22;8552;48.120;-1.456;2023-03-21T16:24:47;17.00;99.90
16871;DHT22;8552;48.120;-1.456;2023-03-21T16:27:14;16.70;99.90
16871;DHT22;8552;48.120;-1.456;2023-03-21T16:29:41;16.50;99.90
16871;DHT22;8552;48.120;-1.456;2023-03-21T16:32:14;16.40;99.90
16871;DHT22;8552;48.120;-1.456;2023-03-21T16:34:40;16.20;99.90
16871;DHT22;8552;48.120;-1.456;2023-03-21T16:37:12;16.00;99.90
16871;DHT22;8552;48.120;-1.456;2023-03-21T16:39:40;15.90;99.90
16871;DHT22;8552;48.120;-1.456;2023-03-21T16:42:06;15.90;99.90
16871;DHT22;8552;48.120;-1.456;2023-03-21T16:44:32;15.80;99.90
16871;DHT22;8552;48.120;-1.456;2023-03-21T16:46:58;15.90;99.90
16871;DHT22;8552;48.120;-1.456;2023-03-21T16:49:27;15.80;99.90
16871;DHT22;8552;48.120;-1.456;2023-03-21T16:51:54;15.80;99.90
16871;DHT22;8552;48.120;-1.456;2023-03-21T16:54:20;15.70;99.90
16871;DHT22;8552;48.120;-1.456;2023-03-21T16:56:48;15.60;99.90
16871;DHT22;8552;48.120;-1.456;2023-03-21T16:59:15;15.50;99.90
16871;DHT22;8552;48.120;-1.456;2023-03-21T17:01:41;15.40;99.90
16871;DHT22;8552;48.120;-1.456;2023-03-21T17:04:11;15.30;99.90
16871;DHT22;8552;48.120;-1.456;2023-03-21T17:06:45;15.20;99.90
16871;DHT22;8552;48.120;-1.456;2023-03-21T17:09:13;15.10;99.90
16871;DHT22;8552;48.120;-1.456;2023-03-21T17:11:39;15.10;99.90
16871;DHT22;8552;48.120;-1.456;2023-03-21T17:14:08;15.10;99.90
16871;DHT22;8552;48.120;-1.456;2023-03-21T17:16:34;15.00;99.90
16871;DHT22;8552;48.120;-1.456;2023-03-21T17:19:00;15.00;99.90
16871;DHT22;8552;48.120;-1.456;2023-03-21T17:21:27;14.80;99.90
16871;DHT22;8552;48.120;-1.456;2023-03-21T17:23:54;14.70;99.90
16871;DHT22;8552;48.120;-1.456;2023-03-21T17:26:23;14.60;99.90
16871;DHT22;8552;48.120;-1.456;2023-03-21T17:28:49;14.40;99.90
16871;DHT22;8552;48.120;-1.456;2023-03-21T17:31:20;14.40;99.90
16871;DHT22;8552;48.120;-1.456;2023-03-21T17:33:47;14.20;99.90
16871;DHT22;8552;48.120;-1.456;2023-03-21T17:36:18;14.10;99.90
16871;DHT22;8552;48.120;-1.456;2023-03-21T17:38:45;14.00;99.90
16871;DHT22;8552;48.120;-1.456;2023-03-21T17:41:12;13.90;99.90
16871;DHT22;8552;48.120;-1.456;2023-03-21T17:43:37;13.80;99.90
16871;DHT22;8552;48.120;-1.456;2023-03-21T17:46:03;13.70;99.90
16871;DHT22;8552;48.120;-1.456;2023-03-21T17:48:29;13.60;99.90